NATURA VA

BIENVENIDO A NATURA VA Buscando el máximo realismo



 METAR AND TAF INFORMATION
METAR FOR LEPA
LEPA 012100Z 25007KT CAVOK 12/07 Q1013 NOSIG

TAF LEPA 011700Z 0118/0218 24007KT CAVOK TX16/0213Z TN10/0206Z
BECMG 0211/0213 22018KT
PROB40
TEMPO 0212/0218 22020G30KT

 AIRPORT MAP

 RUNWAY INFORMATION